createdAt,value
2019-05-11T00:04:45.596Z,15.33
2019-05-11T00:07:14.340Z,15.33
2019-05-11T00:09:57.057Z,15.29
2019-05-11T00:12:13.529Z,15.24
2019-05-11T00:14:42.292Z,15.18
2019-05-11T00:17:10.961Z,15.17
2019-05-11T00:19:39.766Z,15.15
2019-05-11T00:22:08.475Z,15.13
2019-05-11T00:24:37.180Z,15.25
2019-05-11T00:27:05.993Z,15.26
2019-05-11T00:29:34.702Z,15.31
2019-05-11T00:32:03.764Z,15.29
2019-05-11T00:34:32.478Z,15.35
2019-05-11T00:37:01.189Z,15.24
2019-05-11T00:39:29.971Z,15.32
2019-05-11T00:41:58.671Z,15.34
2019-05-11T00:44:27.520Z,15.43
2019-05-11T00:46:56.223Z,15.25
2019-05-11T00:49:24.922Z,15.25
2019-05-11T00:51:53.816Z,15.22
2019-05-11T00:54:22.517Z,15.22
2019-05-11T00:56:51.364Z,15.30
2019-05-11T00:59:22.046Z,15.31
2019-05-11T01:01:50.492Z,15.33
2019-05-11T01:06:56.884Z,15.26
2019-05-11T01:09:25.605Z,15.38
2019-05-11T01:11:54.325Z,15.16
2019-05-11T01:14:23.013Z,15.15
2019-05-11T01:16:52.059Z,15.06
2019-05-11T01:19:20.782Z,15.04
2019-05-11T01:21:49.547Z,14.97
2019-05-11T01:24:18.253Z,15.19
2019-05-11T01:26:46.959Z,15.05
2019-05-11T01:29:15.669Z,15.16
2019-05-11T01:31:44.375Z,15.06
2019-05-11T01:34:13.133Z,14.94
2019-05-11T01:36:41.840Z,15.00
2019-05-11T01:39:10.550Z,15.02
2019-05-11T01:41:39.265Z,14.92
2019-05-11T01:44:07.978Z,14.79
2019-05-11T01:46:36.718Z,14.79
2019-05-11T01:49:05.421Z,14.80
2019-05-11T01:51:34.132Z,14.92
2019-05-11T01:54:02.841Z,14.85
2019-05-11T01:56:31.542Z,14.78
2019-05-11T01:59:00.291Z,14.76
2019-05-11T02:01:28.997Z,14.60
2019-05-11T02:03:57.700Z,14.50
2019-05-11T02:06:26.416Z,14.55
2019-05-11T02:08:55.114Z,14.48
2019-05-11T02:11:23.865Z,14.47
2019-05-11T02:13:52.564Z,14.34
2019-05-11T02:16:21.273Z,14.31
2019-05-11T02:18:49.997Z,14.23
2019-05-11T02:21:18.696Z,14.19
2019-05-11T02:23:47.441Z,14.17
2019-05-11T02:26:16.141Z,14.20
2019-05-11T02:28:44.844Z,14.20
2019-05-11T02:31:13.559Z,14.09
2019-05-11T02:33:42.260Z,14.11
2019-05-11T02:36:11.005Z,14.06
2019-05-11T02:38:39.707Z,13.97
2019-05-11T02:41:08.610Z,13.92
2019-05-11T02:43:37.421Z,13.85
2019-05-11T02:46:06.121Z,13.77
2019-05-11T02:48:34.827Z,13.74
2019-05-11T02:51:03.737Z,13.74
2019-05-11T02:53:33.593Z,13.76
2019-05-11T02:56:03.469Z,13.78
2019-05-11T02:58:32.141Z,13.80
2019-05-11T03:01:00.862Z,13.78
2019-05-11T03:03:30.055Z,13.82
2019-05-11T03:05:58.811Z,13.75
2019-05-11T03:08:27.508Z,13.79
2019-05-11T03:10:56.231Z,13.74
2019-05-11T03:13:24.926Z,13.70
2019-05-11T03:15:53.641Z,13.77
2019-05-11T03:18:22.381Z,13.79
2019-05-11T03:20:51.089Z,13.71
2019-05-11T03:23:19.791Z,13.72
2019-05-11T03:25:48.500Z,13.84
2019-05-11T03:28:17.211Z,13.90
2019-05-11T03:30:45.986Z,13.96
2019-05-11T03:33:14.691Z,13.94
2019-05-11T03:35:43.400Z,14.13
2019-05-11T03:38:12.102Z,14.23
2019-05-11T03:40:40.810Z,14.78
2019-05-11T03:43:09.531Z,15.63
2019-05-11T03:45:38.275Z,16.38
2019-05-11T03:48:06.978Z,17.27
2019-05-11T03:50:35.686Z,17.53
2019-05-11T03:53:04.601Z,18.18
2019-05-11T03:55:33.313Z,18.44
2019-05-11T03:58:02.025Z,19.07
2019-05-11T04:00:30.769Z,19.74
2019-05-11T04:02:59.484Z,20.23
2019-05-11T04:05:28.185Z,20.49
2019-05-11T04:07:56.930Z,20.86
2019-05-11T04:10:25.911Z,21.05
2019-05-11T04:12:54.807Z,20.68
2019-05-11T04:15:23.524Z,20.99
2019-05-11T04:17:52.218Z,21.26
2019-05-11T04:20:20.967Z,21.58
2019-05-11T04:22:49.678Z,21.47
2019-05-11T04:25:18.394Z,21.67
2019-05-11T04:27:47.106Z,20.59
2019-05-11T04:30:15.911Z,20.75
2019-05-11T04:32:44.674Z,21.51
2019-05-11T04:35:13.405Z,21.91
2019-05-11T04:37:42.175Z,22.29
2019-05-11T04:40:11.080Z,22.69
2019-05-11T04:42:54.318Z,23.26
2019-05-11T04:45:10.288Z,23.90
2019-05-11T04:47:38.994Z,23.93
2019-05-11T04:50:08.394Z,23.59
2019-05-11T04:52:37.100Z,23.51
2019-05-11T04:55:06.317Z,23.50
2019-05-11T04:57:35.066Z,23.45
2019-05-11T05:00:04.774Z,23.90
2019-05-11T05:02:33.473Z,23.72
2019-05-11T05:05:02.192Z,23.86
2019-05-11T05:07:30.893Z,23.78
2019-05-11T05:09:59.690Z,23.83
2019-05-11T05:12:28.397Z,23.57
2019-05-11T05:14:57.101Z,24.02
2019-05-11T05:17:25.894Z,23.89
2019-05-11T05:19:54.599Z,22.88
2019-05-11T05:22:23.359Z,23.25
2019-05-11T05:24:52.180Z,23.26
2019-05-11T05:27:20.894Z,23.85
2019-05-11T05:29:49.619Z,23.80
2019-05-11T05:32:18.350Z,23.69
2019-05-11T05:34:47.250Z,23.93
2019-05-11T05:37:15.972Z,24.28
2019-05-11T05:39:44.744Z,24.47
2019-05-11T05:42:13.462Z,24.28
2019-05-11T05:44:42.169Z,24.11
2019-05-11T05:47:10.944Z,23.67
2019-05-11T05:49:39.776Z,24.61
2019-05-11T05:52:08.708Z,24.49
2019-05-11T05:54:37.526Z,23.62
2019-05-11T05:57:06.337Z,22.73
2019-05-11T05:59:35.064Z,21.84
2019-05-11T06:02:03.823Z,20.99
2019-05-11T06:04:32.532Z,20.74
2019-05-11T06:07:01.403Z,20.49
2019-05-11T06:09:30.074Z,20.13
2019-05-11T06:11:58.902Z,20.01
2019-05-11T06:14:27.681Z,19.88
2019-05-11T06:16:57.051Z,19.99
2019-05-11T06:19:25.807Z,20.05
2019-05-11T06:21:54.524Z,19.97
2019-05-11T06:24:23.223Z,19.85
2019-05-11T06:26:51.934Z,20.00
2019-05-11T06:29:21.885Z,20.01
2019-05-11T06:31:54.888Z,20.02
2019-05-11T06:34:23.547Z,19.85
2019-05-11T06:36:52.265Z,19.87
2019-05-11T06:39:20.995Z,19.88
2019-05-11T06:41:49.706Z,19.82
2019-05-11T06:44:18.445Z,19.79
2019-05-11T06:46:47.151Z,19.75
2019-05-11T06:49:15.855Z,19.72
2019-05-11T06:51:44.569Z,19.85
2019-05-11T06:54:13.267Z,19.94
2019-05-11T06:56:42.013Z,20.07
2019-05-11T06:59:10.716Z,20.27
2019-05-11T07:01:39.422Z,20.29
2019-05-11T07:04:08.161Z,20.39
2019-05-11T07:06:36.867Z,20.37
2019-05-11T07:09:07.479Z,20.32
2019-05-11T07:11:36.204Z,20.36
2019-05-11T07:14:19.062Z,20.29
2019-05-11T07:16:35.459Z,20.24
2019-05-11T07:19:04.145Z,20.45
2019-05-11T07:21:32.910Z,20.64
2019-05-11T07:24:01.612Z,20.58
2019-05-11T07:26:30.392Z,20.64
2019-05-11T07:28:59.114Z,20.58
2019-05-11T07:31:27.817Z,20.63
2019-05-11T07:33:58.752Z,20.61
2019-05-11T07:36:28.294Z,20.72
2019-05-11T07:38:58.009Z,20.67
2019-05-11T07:41:28.086Z,20.75
2019-05-11T07:43:58.953Z,20.77
2019-05-11T07:46:28.803Z,20.68
2019-05-11T07:48:58.607Z,20.74
2019-05-11T07:51:28.739Z,20.78
2019-05-11T07:53:58.017Z,20.77
2019-05-11T07:56:28.529Z,20.81
2019-05-11T07:58:58.107Z,20.91
2019-05-11T08:01:28.125Z,20.94
2019-05-11T08:03:58.631Z,21.07
2019-05-11T08:06:28.623Z,21.09
2019-05-11T08:08:58.799Z,21.28
2019-05-11T08:11:31.226Z,21.37
2019-05-11T08:13:58.540Z,21.43
2019-05-11T08:16:28.608Z,21.62
2019-05-11T08:18:58.847Z,21.86
2019-05-11T08:21:28.512Z,21.95
2019-05-11T08:23:58.803Z,22.19
2019-05-11T08:26:28.429Z,22.36
2019-05-11T08:28:57.891Z,22.43
2019-05-11T08:31:27.962Z,21.82
2019-05-11T08:33:58.300Z,21.41
2019-05-11T08:36:28.921Z,21.62
2019-05-11T08:38:58.551Z,21.82
2019-05-11T08:41:28.142Z,22.08
2019-05-11T08:43:58.685Z,22.29
2019-05-11T08:46:28.041Z,21.96
2019-05-11T08:48:59.346Z,21.61
2019-05-11T08:51:27.979Z,21.74
2019-05-11T08:53:58.314Z,21.75
2019-05-11T08:56:28.942Z,21.83
2019-05-11T08:58:58.796Z,21.85
2019-05-11T09:01:28.700Z,21.82
2019-05-11T09:03:58.346Z,21.91
2019-05-11T09:06:28.428Z,21.88
2019-05-11T09:08:58.364Z,22.14
2019-05-11T09:11:28.374Z,22.37
2019-05-11T09:13:57.934Z,22.32
2019-05-11T09:16:28.986Z,22.34
2019-05-11T09:18:58.106Z,22.14
2019-05-11T09:21:28.159Z,22.46
2019-05-11T09:23:57.855Z,22.57
2019-05-11T09:26:28.675Z,22.37
2019-05-11T09:28:58.199Z,22.17
2019-05-11T09:31:27.935Z,22.23
2019-05-11T09:33:58.409Z,22.29
2019-05-11T09:36:28.584Z,22.34
2019-05-11T09:38:58.182Z,22.52
2019-05-11T09:41:28.927Z,22.63
2019-05-11T09:43:58.676Z,22.62
2019-05-11T09:46:27.955Z,22.34
2019-05-11T09:48:59.011Z,22.78
2019-05-11T09:51:28.738Z,22.92
2019-05-11T09:53:58.796Z,23.05
2019-05-11T09:56:28.739Z,22.97
2019-05-11T09:58:58.254Z,23.07
2019-05-11T10:01:29.475Z,23.40
2019-05-11T10:03:58.503Z,23.38
2019-05-11T10:06:28.173Z,23.05
2019-05-11T10:08:57.935Z,22.82
2019-05-11T10:11:28.277Z,22.82
2019-05-11T10:13:57.815Z,22.77
2019-05-11T10:16:28.078Z,22.70
2019-05-11T10:18:59.003Z,22.69
2019-05-11T10:21:27.937Z,22.93
2019-05-11T10:23:57.960Z,23.11
2019-05-11T10:26:27.895Z,23.11
2019-05-11T10:28:58.469Z,22.88
2019-05-11T10:31:28.908Z,22.98
2019-05-11T10:33:58.109Z,23.25
2019-05-11T10:36:27.984Z,23.82
2019-05-11T10:38:58.812Z,24.39
2019-05-11T10:41:28.511Z,24.27
2019-05-11T10:43:58.056Z,24.10
2019-05-11T10:46:28.688Z,23.86
2019-05-11T10:48:58.656Z,24.19
2019-05-11T10:51:28.813Z,24.56
2019-05-11T10:53:58.611Z,24.66
2019-05-11T10:56:28.417Z,24.73
2019-05-11T10:58:58.637Z,24.56
2019-05-11T11:01:28.550Z,24.14
2019-05-11T11:03:58.705Z,23.90
2019-05-11T11:06:28.299Z,24.01
2019-05-11T11:08:57.927Z,24.29
2019-05-11T11:11:27.785Z,24.23
2019-05-11T11:13:58.434Z,24.29
2019-05-11T11:16:36.888Z,23.97
2019-05-11T11:18:58.761Z,23.92
2019-05-11T11:21:28.035Z,23.81
2019-05-11T11:23:58.706Z,23.76
2019-05-11T11:26:28.553Z,24.01
2019-05-11T11:28:58.050Z,24.24
2019-05-11T11:31:28.765Z,24.62
2019-05-11T11:33:58.529Z,24.86
2019-05-11T11:36:28.363Z,24.97
2019-05-11T11:38:58.309Z,25.11
2019-05-11T11:41:29.880Z,25.14
2019-05-11T11:43:58.660Z,25.05
2019-05-11T11:46:27.839Z,25.30
2019-05-11T11:48:58.134Z,25.55
2019-05-11T11:51:28.597Z,25.70
2019-05-11T11:53:58.425Z,25.58
2019-05-11T11:56:28.365Z,25.02
2019-05-11T11:58:57.958Z,24.74
2019-05-11T12:01:28.118Z,24.59
2019-05-11T12:03:58.053Z,24.52
2019-05-11T12:06:27.991Z,24.79
2019-05-11T12:08:58.500Z,24.90
2019-05-11T12:11:27.952Z,24.94
2019-05-11T12:13:58.001Z,24.76
2019-05-11T12:16:28.147Z,24.84
2019-05-11T12:18:57.853Z,24.96
2019-05-11T12:21:27.749Z,25.11
2019-05-11T12:23:58.462Z,25.07
2019-05-11T12:26:28.151Z,25.05
2019-05-11T12:28:57.696Z,24.93
2019-05-11T12:31:28.856Z,25.20
2019-05-11T12:33:58.589Z,25.22
2019-05-11T12:36:28.056Z,25.28
2019-05-11T12:38:58.042Z,25.70
2019-05-11T12:41:28.051Z,26.11
2019-05-11T12:43:57.769Z,26.13
2019-05-11T12:46:27.640Z,26.25
2019-05-11T12:48:58.857Z,26.40
2019-05-11T12:51:27.643Z,26.34
2019-05-11T12:53:57.635Z,26.23
2019-05-11T12:56:27.727Z,26.30
2019-05-11T12:58:58.227Z,26.37
2019-05-11T13:01:29.079Z,26.38
2019-05-11T13:03:58.034Z,26.34
2019-05-11T13:06:27.963Z,26.42
2019-05-11T13:08:58.776Z,26.45
2019-05-11T13:11:28.598Z,26.16
2019-05-11T13:13:58.586Z,25.74
2019-05-11T13:16:28.796Z,25.48
2019-05-11T13:18:57.789Z,25.20
2019-05-11T13:21:28.528Z,24.96
2019-05-11T13:23:57.700Z,25.14
2019-05-11T13:26:28.402Z,25.10
2019-05-11T13:28:58.440Z,25.49
2019-05-11T13:31:27.842Z,25.53
2019-05-11T13:33:58.490Z,25.46
2019-05-11T13:36:28.654Z,25.18
2019-05-11T13:38:58.820Z,25.19
2019-05-11T13:41:28.203Z,25.15
2019-05-11T13:43:57.674Z,25.15
2019-05-11T13:46:28.285Z,25.15
2019-05-11T13:48:57.987Z,24.97
2019-05-11T13:51:28.556Z,25.02
2019-05-11T13:53:58.477Z,25.09
2019-05-11T13:56:28.521Z,25.05
2019-05-11T13:58:59.162Z,24.82
2019-05-11T14:01:27.949Z,24.77
2019-05-11T14:03:58.488Z,24.93
2019-05-11T14:06:28.860Z,25.11
2019-05-11T14:08:58.725Z,25.04
2019-05-11T14:11:28.627Z,25.14
2019-05-11T14:13:58.477Z,25.25
2019-05-11T14:16:27.812Z,25.30
2019-05-11T14:18:57.830Z,25.28
2019-05-11T14:21:27.946Z,25.19
2019-05-11T14:23:58.767Z,24.42
2019-05-11T14:26:28.034Z,24.26
2019-05-11T14:28:58.225Z,24.35
2019-05-11T14:31:27.935Z,24.63
2019-05-11T14:33:57.925Z,25.08
2019-05-11T14:36:28.242Z,25.31
2019-05-11T14:38:57.803Z,25.01
2019-05-11T14:41:28.589Z,24.95
2019-05-11T14:43:57.950Z,25.28
2019-05-11T14:46:27.890Z,25.42
2019-05-11T14:48:58.514Z,25.56
2019-05-11T14:51:28.243Z,25.41
2019-05-11T14:53:59.417Z,25.59
2019-05-11T14:56:27.984Z,25.46
2019-05-11T14:58:58.015Z,25.36
2019-05-11T15:01:28.703Z,25.31
2019-05-11T15:03:58.897Z,25.41
2019-05-11T15:06:28.017Z,25.63
2019-05-11T15:08:58.248Z,25.92
2019-05-11T15:11:28.083Z,26.22
2019-05-11T15:13:57.569Z,26.41
2019-05-11T15:16:27.851Z,26.51
2019-05-11T15:18:58.596Z,26.13
2019-05-11T15:21:28.067Z,25.31
2019-05-11T15:23:58.090Z,24.74
2019-05-11T15:26:27.786Z,24.81
2019-05-11T15:28:58.495Z,25.33
2019-05-11T15:31:27.863Z,25.61
2019-05-11T15:33:57.767Z,25.58
2019-05-11T15:36:28.513Z,25.38
2019-05-11T15:38:58.250Z,25.53
2019-05-11T15:41:28.146Z,25.65
2019-05-11T15:43:57.926Z,25.68
2019-05-11T15:46:28.222Z,25.42
2019-05-11T15:49:03.006Z,24.70
2019-05-11T15:51:29.121Z,24.74
2019-05-11T15:53:58.691Z,24.88
2019-05-11T15:56:27.957Z,24.96
2019-05-11T15:58:57.821Z,25.02
2019-05-11T16:01:28.752Z,25.03
2019-05-11T16:03:58.307Z,25.25
2019-05-11T16:06:28.446Z,25.49
2019-05-11T16:08:58.563Z,26.13
2019-05-11T16:11:28.406Z,26.53
2019-05-11T16:13:58.670Z,27.28
2019-05-11T16:16:28.128Z,27.80
2019-05-11T16:19:08.630Z,27.94
2019-05-11T16:21:28.582Z,28.74
2019-05-11T16:23:58.486Z,28.55
2019-05-11T16:26:28.134Z,28.17
2019-05-11T16:28:58.148Z,28.88
2019-05-11T16:31:28.440Z,28.22
2019-05-11T16:33:58.910Z,27.91
2019-05-11T16:36:28.399Z,27.90
2019-05-11T16:38:57.330Z,27.47
2019-05-11T16:41:28.858Z,27.47
2019-05-11T16:43:58.373Z,27.68
2019-05-11T16:46:28.421Z,27.68
2019-05-11T16:48:57.864Z,28.02
2019-05-11T16:51:28.447Z,27.78
2019-05-11T16:53:58.785Z,27.13
2019-05-11T16:56:27.573Z,26.11
2019-05-11T16:58:58.763Z,25.44
2019-05-11T17:01:26.747Z,25.31
2019-05-11T17:03:57.710Z,24.52
2019-05-11T17:06:25.888Z,24.21
2019-05-11T17:08:54.591Z,23.72
2019-05-11T17:11:23.340Z,23.46
2019-05-11T17:13:52.044Z,22.94
2019-05-11T17:16:20.747Z,22.66
2019-05-11T17:18:49.456Z,22.29
2019-05-11T17:21:18.515Z,21.96
2019-05-11T17:23:48.770Z,21.75
2019-05-11T17:26:19.072Z,21.55
2019-05-11T17:28:49.002Z,21.12
2019-05-11T17:31:18.714Z,20.79
2019-05-11T17:33:47.883Z,20.45
2019-05-11T17:36:18.685Z,20.24
2019-05-11T17:38:47.951Z,20.01
2019-05-11T17:41:16.799Z,19.79
2019-05-11T17:43:47.822Z,19.62
2019-05-11T17:46:18.257Z,19.33
2019-05-11T17:48:46.393Z,19.33
2019-05-11T17:51:21.359Z,19.21
2019-05-11T17:53:48.255Z,19.09
2019-05-11T17:56:17.022Z,19.01
2019-05-11T17:58:48.192Z,18.84
2019-05-11T18:01:18.501Z,18.76
2019-05-11T18:03:46.639Z,18.63
2019-05-11T18:06:15.351Z,18.50
2019-05-11T18:08:44.059Z,18.45
2019-05-11T18:11:12.822Z,18.40
2019-05-11T18:13:41.535Z,18.33
2019-05-11T18:16:10.234Z,18.28
2019-05-11T18:18:38.994Z,18.22
2019-05-11T18:21:08.500Z,18.16
2019-05-11T18:23:38.725Z,18.21
2019-05-11T18:26:08.847Z,18.22
2019-05-11T18:28:37.971Z,18.19
2019-05-11T18:31:06.795Z,18.18
2019-05-11T18:33:35.508Z,18.20
2019-05-11T18:36:05.017Z,18.17
2019-05-11T18:38:33.764Z,18.11
2019-05-11T18:41:02.478Z,18.08
2019-05-11T18:43:31.202Z,17.99
2019-05-11T18:45:59.919Z,18.02
2019-05-11T18:48:29.332Z,17.99
2019-05-11T18:50:58.961Z,17.94
2019-05-11T18:53:28.858Z,17.93
2019-05-11T18:55:59.077Z,17.93
2019-05-11T18:58:28.040Z,17.93
2019-05-11T19:00:56.796Z,17.96
2019-05-11T19:03:27.900Z,17.96
2019-05-11T19:05:57.638Z,17.97
2019-05-11T19:08:27.944Z,18.02
2019-05-11T19:10:58.012Z,18.00
2019-05-11T19:13:28.175Z,18.00
2019-05-11T19:15:58.399Z,17.99
2019-05-11T19:18:28.158Z,18.01
2019-05-11T19:20:58.789Z,18.14
2019-05-11T19:23:28.682Z,18.12
2019-05-11T19:25:57.938Z,18.21
2019-05-11T19:28:28.151Z,18.15
2019-05-11T19:30:59.138Z,18.07
2019-05-11T19:33:27.870Z,18.08
2019-05-11T19:35:58.629Z,18.44
2019-05-11T19:38:28.042Z,18.52
2019-05-11T19:40:58.797Z,18.61
2019-05-11T19:43:27.734Z,18.49
2019-05-11T19:45:58.125Z,18.41
2019-05-11T19:48:28.053Z,18.31
2019-05-11T19:51:04.589Z,18.40
2019-05-11T19:53:28.244Z,18.53
2019-05-11T19:55:58.393Z,18.69
2019-05-11T19:58:28.971Z,18.81
2019-05-11T20:00:58.069Z,18.93
2019-05-11T20:03:28.560Z,19.09
2019-05-11T20:05:58.062Z,19.00
2019-05-11T20:08:29.118Z,18.97
2019-05-11T20:10:57.344Z,19.10
2019-05-11T20:13:28.235Z,19.17
2019-05-11T20:15:57.849Z,19.18
2019-05-11T20:18:28.773Z,19.22
2019-05-11T20:20:57.161Z,19.20
2019-05-11T20:23:25.867Z,19.14
2019-05-11T20:25:54.967Z,19.20
2019-05-11T20:28:23.711Z,19.08
2019-05-11T20:30:52.420Z,19.05
2019-05-11T20:33:21.125Z,19.02
2019-05-11T20:35:50.187Z,18.97
2019-05-11T20:38:19.025Z,18.95
2019-05-11T20:40:48.431Z,18.90
2019-05-11T20:43:18.589Z,18.84
2019-05-11T20:45:48.614Z,18.83
2019-05-11T20:48:18.419Z,18.76
2019-05-11T20:50:48.369Z,18.78
2019-05-11T20:53:17.957Z,18.76
2019-05-11T20:55:47.860Z,18.68
2019-05-11T20:58:18.782Z,18.56
2019-05-11T21:00:49.002Z,18.48
2019-05-11T21:03:17.651Z,18.34
2019-05-11T21:05:48.220Z,18.32
2019-05-11T21:08:17.755Z,18.15
2019-05-11T21:10:48.828Z,17.68
2019-05-11T21:13:17.886Z,17.43
2019-05-11T21:15:47.951Z,17.57
2019-05-11T21:18:18.387Z,17.65
2019-05-11T21:20:48.391Z,17.65
2019-05-11T21:23:18.602Z,17.62
2019-05-11T21:25:47.541Z,17.63
2019-05-11T21:28:16.342Z,17.58
2019-05-11T21:30:45.046Z,17.36
2019-05-11T21:33:13.758Z,17.36
2019-05-11T21:35:42.461Z,17.37
2019-05-11T21:38:11.206Z,17.40
2019-05-11T21:40:39.909Z,17.41
2019-05-11T21:43:08.916Z,17.16
2019-05-11T21:45:40.492Z,17.19
2019-05-11T21:48:08.243Z,17.11
2019-05-11T21:50:37.686Z,17.09
2019-05-11T21:53:08.162Z,17.07
2019-05-11T21:55:37.775Z,16.95
2019-05-11T21:58:08.851Z,16.89
2019-05-11T22:00:38.668Z,16.91
2019-05-11T22:03:09.964Z,16.74
2019-05-11T22:05:38.220Z,16.53
2019-05-11T22:08:08.575Z,16.53
2019-05-11T22:10:38.538Z,16.56
2019-05-11T22:13:07.561Z,16.34
2019-05-11T22:15:38.630Z,16.36
2019-05-11T22:18:08.060Z,16.41
2019-05-11T22:20:40.516Z,16.25
2019-05-11T22:23:08.469Z,15.85
2019-05-11T22:25:38.232Z,15.82
2019-05-11T22:28:08.481Z,15.89
2019-05-11T22:30:39.342Z,15.92
2019-05-11T22:33:08.811Z,15.72
2019-05-11T22:35:37.996Z,15.29
2019-05-11T22:38:08.387Z,15.35
2019-05-11T22:40:38.315Z,14.93
2019-05-11T22:43:09.402Z,15.04
2019-05-11T22:45:38.287Z,15.23
2019-05-11T22:48:07.864Z,15.30
2019-05-11T22:50:38.262Z,15.27
2019-05-11T22:53:08.817Z,15.24
2019-05-11T22:55:38.147Z,15.23
2019-05-11T22:58:08.458Z,15.28
2019-05-11T23:00:45.103Z,15.29
2019-05-11T23:03:14.007Z,15.26
2019-05-11T23:05:43.045Z,15.17
2019-05-11T23:08:11.847Z,15.22
2019-05-11T23:10:40.554Z,15.18
2019-05-11T23:13:11.389Z,15.25
2019-05-11T23:15:40.498Z,15.29
2019-05-11T23:18:09.416Z,15.28
2019-05-11T23:20:38.840Z,15.29
2019-05-11T23:23:08.704Z,15.35
2019-05-11T23:25:37.792Z,15.27
2019-05-11T23:28:06.482Z,15.03
2019-05-11T23:30:35.221Z,15.02
2019-05-11T23:33:03.923Z,15.09
2019-05-11T23:35:32.631Z,15.14
2019-05-11T23:38:01.339Z,15.15
2019-05-11T23:40:30.041Z,14.99
2019-05-11T23:42:58.798Z,14.97
2019-05-11T23:45:28.064Z,15.01
2019-05-11T23:47:58.906Z,14.72
2019-05-11T23:50:28.260Z,14.69
2019-05-11T23:53:05.916Z,14.53
2019-05-11T23:55:28.925Z,14.36
2019-05-11T23:57:57.857Z,14.35
